createdAt,value
2023-02-07T00:00:43.127Z,10.27
2023-02-07T00:03:14.789Z,10.52
2023-02-07T00:05:46.412Z,10.81
2023-02-07T00:08:18.037Z,10.37
2023-02-07T00:10:49.596Z,10.19
2023-02-07T00:13:21.189Z,10.58
2023-02-07T00:15:52.858Z,10.25
2023-02-07T00:18:24.494Z,10.64
2023-02-07T00:21:05.317Z,10.32
2023-02-07T00:23:38.138Z,10.32
2023-02-07T00:26:11.998Z,10.41
2023-02-07T00:28:46.162Z,10.26
2023-02-07T00:31:20.854Z,9.66
2023-02-07T00:33:55.739Z,10.24
2023-02-07T00:36:30.198Z,9.56
2023-02-07T00:39:05.747Z,9.28
2023-02-07T00:41:39.272Z,9.46
2023-02-07T00:44:11.722Z,9.56
2023-02-07T00:46:43.389Z,9.16
2023-02-07T00:49:15.443Z,9.38
2023-02-07T00:51:47.130Z,9.08
2023-02-07T00:54:18.712Z,9.40
2023-02-07T00:56:50.323Z,8.90
2023-02-07T00:59:21.941Z,8.30
2023-02-07T01:01:53.609Z,8.87
2023-02-07T01:04:25.215Z,8.87
2023-02-07T01:06:56.821Z,8.72
2023-02-07T01:09:30.009Z,8.70
2023-02-07T01:12:01.665Z,8.50
2023-02-07T01:14:33.335Z,8.45
2023-02-07T01:17:04.937Z,8.96
2023-02-07T01:19:36.529Z,8.03
2023-02-07T01:22:08.146Z,8.05
2023-02-07T01:24:39.734Z,8.33
2023-02-07T01:27:11.359Z,8.37
2023-02-07T01:29:43.027Z,8.75
2023-02-07T01:32:15.220Z,8.30
2023-02-07T01:34:46.895Z,8.60
2023-02-07T01:37:18.590Z,8.74
2023-02-07T01:39:50.276Z,8.68
2023-02-07T01:42:25.538Z,8.86
2023-02-07T01:45:12.653Z,8.55
2023-02-07T01:47:44.362Z,9.33
2023-02-07T01:50:16.134Z,9.42
2023-02-07T01:52:48.856Z,9.02
2023-02-07T01:55:28.655Z,9.14
2023-02-07T01:58:04.290Z,9.20
2023-02-07T02:00:37.295Z,9.05
2023-02-07T02:03:08.860Z,9.33
2023-02-07T02:05:43.355Z,9.45
2023-02-07T02:08:15.102Z,9.22
2023-02-07T02:11:01.971Z,9.34
2023-02-07T02:13:55.386Z,9.75
2023-02-07T02:16:58.421Z,9.41
2023-02-07T02:20:03.932Z,9.75
2023-02-07T02:22:47.763Z,9.90
2023-02-07T02:25:25.340Z,9.99
2023-02-07T02:28:02.786Z,9.96
2023-02-07T02:31:02.246Z,10.11
2023-02-07T02:34:01.737Z,10.41
2023-02-07T02:36:54.774Z,11.36
2023-02-07T02:39:37.102Z,11.42
2023-02-07T02:42:23.031Z,11.19
2023-02-07T02:45:05.056Z,11.15
2023-02-07T02:47:41.600Z,10.98
2023-02-07T02:50:21.310Z,11.03
2023-02-07T02:52:54.304Z,11.40
2023-02-07T02:56:06.420Z,11.11
2023-02-07T02:59:00.386Z,11.49
2023-02-07T03:02:07.446Z,11.56
2023-02-07T03:05:02.189Z,11.61
2023-02-07T03:07:58.629Z,12.08
2023-02-07T03:11:01.300Z,12.13
2023-02-07T03:13:59.034Z,12.64
2023-02-07T03:16:39.487Z,12.81
2023-02-07T03:19:22.346Z,13.15
2023-02-07T03:21:59.962Z,13.51
2023-02-07T03:24:36.190Z,13.95
2023-02-07T03:27:13.283Z,13.76
2023-02-07T03:29:48.667Z,14.20
2023-02-07T03:32:21.439Z,14.15
2023-02-07T03:35:00.933Z,14.47
2023-02-07T03:37:37.919Z,14.56
2023-02-07T03:40:11.554Z,15.02
2023-02-07T03:42:53.458Z,15.42
2023-02-07T03:45:25.675Z,15.26
2023-02-07T03:47:57.267Z,15.44
2023-02-07T03:50:28.895Z,15.79
2023-02-07T03:53:00.616Z,15.02
2023-02-07T03:55:32.959Z,15.82
2023-02-07T03:58:04.723Z,16.28
2023-02-07T04:00:37.210Z,16.61
2023-02-07T04:03:08.821Z,16.46
2023-02-07T04:05:40.739Z,16.57
2023-02-07T04:08:15.725Z,16.81
2023-02-07T04:10:57.154Z,16.40
2023-02-07T04:13:29.161Z,17.07
2023-02-07T04:16:00.822Z,17.32
2023-02-07T04:18:33.061Z,16.94
2023-02-07T04:21:07.212Z,17.23
2023-02-07T04:23:38.849Z,17.61
2023-02-07T04:26:10.559Z,17.34
2023-02-07T04:28:42.344Z,17.24
2023-02-07T04:31:13.917Z,17.95
2023-02-07T04:33:45.488Z,17.76
2023-02-07T04:36:17.118Z,17.07
2023-02-07T04:38:48.751Z,17.06
2023-02-07T04:41:20.352Z,16.88
2023-02-07T04:43:51.985Z,17.43
2023-02-07T04:46:23.697Z,17.86
2023-02-07T04:48:55.320Z,17.48
2023-02-07T04:51:26.869Z,17.52
2023-02-07T04:53:58.978Z,17.60
2023-02-07T04:56:30.878Z,17.61
2023-02-07T04:59:02.528Z,17.94
2023-02-07T05:01:34.187Z,17.54
2023-02-07T05:04:05.765Z,17.44
2023-02-07T05:06:37.340Z,17.39
2023-02-07T05:09:08.951Z,17.31
2023-02-07T05:11:40.500Z,17.20
2023-02-07T05:14:12.038Z,17.95
2023-02-07T05:16:43.800Z,17.87
2023-02-07T05:19:15.413Z,17.02
2023-02-07T05:21:46.967Z,17.55
2023-02-07T05:24:18.632Z,17.40
2023-02-07T05:26:50.254Z,17.86
2023-02-07T05:29:21.901Z,17.48
2023-02-07T05:31:53.654Z,17.56
2023-02-07T05:34:25.331Z,17.87
2023-02-07T05:36:56.963Z,17.13
2023-02-07T05:39:28.549Z,17.75
2023-02-07T05:42:00.126Z,17.47
2023-02-07T05:44:31.741Z,17.40
2023-02-07T05:47:03.352Z,17.78
2023-02-07T05:49:34.928Z,17.72
2023-02-07T05:52:06.507Z,18.04
2023-02-07T05:54:38.084Z,18.30
2023-02-07T05:57:09.680Z,17.95
2023-02-07T05:59:41.242Z,18.27
2023-02-07T06:02:13.024Z,18.27
2023-02-07T06:04:44.712Z,18.70
2023-02-07T06:07:16.326Z,18.40
2023-02-07T06:09:47.924Z,18.50
2023-02-07T06:12:19.554Z,18.39
2023-02-07T06:14:51.482Z,18.14
2023-02-07T06:17:23.156Z,18.63
2023-02-07T06:19:54.762Z,18.71
2023-02-07T06:22:26.383Z,18.53
2023-02-07T06:24:58.071Z,19.19
2023-02-07T06:27:29.678Z,18.67
2023-02-07T06:30:01.234Z,19.82
2023-02-07T06:32:34.342Z,19.47
2023-02-07T06:35:06.997Z,19.96
2023-02-07T06:37:38.620Z,20.08
2023-02-07T06:40:10.702Z,19.36
2023-02-07T06:42:42.331Z,19.18
2023-02-07T06:45:13.932Z,18.89
2023-02-07T06:47:46.214Z,19.21
2023-02-07T06:50:17.890Z,18.60
2023-02-07T06:52:49.799Z,18.73
2023-02-07T06:55:21.496Z,19.09
2023-02-07T06:57:53.082Z,19.09
2023-02-07T07:00:25.254Z,18.68
2023-02-07T07:02:56.997Z,18.87
2023-02-07T07:05:29.627Z,19.02
2023-02-07T07:08:01.616Z,18.83
2023-02-07T07:10:33.464Z,19.23
2023-02-07T07:13:05.049Z,19.08
2023-02-07T07:15:37.161Z,19.64
2023-02-07T07:18:09.080Z,19.05
2023-02-07T07:20:40.828Z,19.70
2023-02-07T07:23:12.455Z,20.15
2023-02-07T07:25:44.040Z,19.92
2023-02-07T07:28:15.716Z,19.72
2023-02-07T07:30:48.263Z,19.63
2023-02-07T07:33:20.003Z,19.21
2023-02-07T07:35:57.145Z,19.18
2023-02-07T07:38:28.927Z,18.72
2023-02-07T07:41:00.820Z,19.28
2023-02-07T07:43:32.702Z,18.29
2023-02-07T07:46:04.514Z,18.57
2023-02-07T07:48:36.287Z,18.84
2023-02-07T07:51:08.943Z,18.47
2023-02-07T07:53:40.592Z,18.64
2023-02-07T07:56:12.278Z,18.82
2023-02-07T07:58:43.921Z,18.85
2023-02-07T08:01:15.779Z,18.28
2023-02-07T08:03:47.833Z,17.52
2023-02-07T08:06:20.427Z,17.72
2023-02-07T08:08:52.389Z,18.15
2023-02-07T08:11:24.568Z,18.12
2023-02-07T08:13:56.190Z,18.22
2023-02-07T08:16:27.836Z,17.69
2023-02-07T08:18:59.495Z,17.31
2023-02-07T08:21:31.051Z,17.84
2023-02-07T08:24:02.715Z,17.95
2023-02-07T08:26:34.397Z,18.43
2023-02-07T08:29:06.026Z,18.62
2023-02-07T08:31:37.746Z,19.57
2023-02-07T08:34:09.538Z,20.10
2023-02-07T08:36:41.125Z,19.99
2023-02-07T08:39:12.795Z,20.08
2023-02-07T08:41:44.501Z,19.58
2023-02-07T08:44:16.151Z,19.15
2023-02-07T08:46:47.814Z,18.76
2023-02-07T08:49:19.841Z,19.88
2023-02-07T08:51:51.516Z,20.13
2023-02-07T08:54:23.262Z,20.83
2023-02-07T08:56:54.956Z,20.88
2023-02-07T08:59:26.630Z,21.64
2023-02-07T09:01:58.498Z,20.92
2023-02-07T09:04:30.150Z,20.56
2023-02-07T09:07:01.903Z,19.85
2023-02-07T09:09:33.619Z,18.68
2023-02-07T09:12:05.804Z,19.35
2023-02-07T09:14:38.969Z,19.35
2023-02-07T09:17:10.722Z,19.81
2023-02-07T09:19:42.407Z,20.29
2023-02-07T09:22:14.508Z,19.99
2023-02-07T09:24:46.106Z,19.79
2023-02-07T09:27:17.800Z,20.17
2023-02-07T09:29:49.341Z,20.28
2023-02-07T09:32:20.999Z,20.16
2023-02-07T09:34:52.651Z,20.10
2023-02-07T09:37:24.236Z,19.65
2023-02-07T09:39:55.863Z,18.81
2023-02-07T09:43:10.441Z,18.62
2023-02-07T09:45:47.832Z,19.25
2023-02-07T09:48:40.945Z,19.42
2023-02-07T09:51:17.636Z,18.30
2023-02-07T09:53:59.380Z,17.52
2023-02-07T09:56:34.724Z,17.42
2023-02-07T09:59:06.300Z,17.55
2023-02-07T10:01:46.390Z,17.77
2023-02-07T10:04:29.183Z,18.49
2023-02-07T10:07:05.947Z,17.50
2023-02-07T10:09:44.799Z,18.06
2023-02-07T10:12:38.994Z,17.82
2023-02-07T10:15:37.617Z,18.79
2023-02-07T10:18:27.451Z,17.57
2023-02-07T10:21:13.408Z,18.34
2023-02-07T10:24:03.566Z,18.52
2023-02-07T10:26:42.874Z,17.87
2023-02-07T10:29:48.317Z,18.48
2023-02-07T10:32:31.310Z,18.60
2023-02-07T10:35:31.404Z,18.57
2023-02-07T10:38:04.473Z,17.89
2023-02-07T10:40:56.044Z,17.70
2023-02-07T10:43:33.585Z,18.37
2023-02-07T10:46:10.776Z,17.55
2023-02-07T10:48:43.349Z,18.03
2023-02-07T10:51:29.160Z,16.88
2023-02-07T10:54:02.203Z,17.33
2023-02-07T10:56:45.141Z,16.82
2023-02-07T10:59:29.189Z,16.94
2023-02-07T11:02:01.019Z,16.91
2023-02-07T11:04:39.026Z,16.85
2023-02-07T11:07:15.485Z,17.17
2023-02-07T11:09:47.912Z,16.81
2023-02-07T11:12:22.694Z,16.94
2023-02-07T11:15:06.081Z,16.50
2023-02-07T11:17:37.670Z,17.14
2023-02-07T11:20:23.008Z,17.37
2023-02-07T11:22:57.819Z,17.15
2023-02-07T11:25:35.386Z,16.79
2023-02-07T11:28:18.809Z,16.33
2023-02-07T11:30:59.116Z,16.34
2023-02-07T11:33:35.258Z,16.46
2023-02-07T11:36:21.069Z,16.66
2023-02-07T11:38:59.284Z,15.99
2023-02-07T11:41:33.572Z,15.78
2023-02-07T11:44:18.379Z,15.94
2023-02-07T11:46:50.295Z,16.06
2023-02-07T11:49:44.272Z,16.23
2023-02-07T11:52:16.563Z,15.75
2023-02-07T11:55:00.264Z,15.62
2023-02-07T11:57:34.164Z,16.60
2023-02-07T12:00:05.980Z,15.89
2023-02-07T12:02:52.187Z,16.13
2023-02-07T12:05:31.672Z,16.04
2023-02-07T12:08:15.353Z,16.23
2023-02-07T12:10:53.389Z,16.26
2023-02-07T12:13:39.327Z,16.58
2023-02-07T12:16:24.522Z,15.73
2023-02-07T12:19:02.533Z,15.66
2023-02-07T12:22:14.686Z,15.65
2023-02-07T12:25:24.673Z,15.88
2023-02-07T12:28:03.687Z,15.31
2023-02-07T12:30:46.538Z,15.88
2023-02-07T12:33:24.103Z,15.72
2023-02-07T12:36:20.107Z,15.69
2023-02-07T12:39:19.813Z,15.83
2023-02-07T12:42:13.254Z,16.04
2023-02-07T12:44:58.527Z,16.04
2023-02-07T12:47:43.672Z,16.01
2023-02-07T12:50:39.842Z,16.21
2023-02-07T12:53:20.378Z,16.26
2023-02-07T12:55:55.009Z,15.89
2023-02-07T12:58:48.392Z,15.85
2023-02-07T13:01:32.407Z,15.82
2023-02-07T13:04:29.003Z,15.96
2023-02-07T13:07:21.757Z,15.89
2023-02-07T13:10:19.680Z,15.56
2023-02-07T13:13:01.866Z,15.14
2023-02-07T13:15:37.255Z,15.92
2023-02-07T13:18:26.147Z,15.55
2023-02-07T13:21:30.132Z,15.23
2023-02-07T13:24:06.879Z,15.61
2023-02-07T13:26:46.626Z,15.54
2023-02-07T13:29:20.394Z,15.73
2023-02-07T13:32:01.341Z,15.35
2023-02-07T13:34:45.875Z,15.78
2023-02-07T13:37:19.210Z,15.76
2023-02-07T13:40:27.753Z,15.44
2023-02-07T13:43:08.142Z,15.50
2023-02-07T13:46:00.886Z,15.72
2023-02-07T13:48:56.603Z,14.65
2023-02-07T13:51:40.913Z,15.69
2023-02-07T13:54:12.444Z,15.33
2023-02-07T13:56:57.195Z,15.66
2023-02-07T13:59:31.789Z,15.68
2023-02-07T14:02:12.188Z,15.81
2023-02-07T14:04:55.584Z,15.98
2023-02-07T14:07:33.498Z,16.13
2023-02-07T14:10:06.763Z,16.30
2023-02-07T14:12:40.096Z,16.42
2023-02-07T14:15:30.738Z,16.34
2023-02-07T14:18:05.864Z,16.57
2023-02-07T14:20:37.775Z,15.92
2023-02-07T14:23:19.742Z,16.71
2023-02-07T14:25:51.402Z,16.56
2023-02-07T14:28:34.564Z,17.31
2023-02-07T14:31:22.895Z,16.39
2023-02-07T14:34:14.850Z,16.77
2023-02-07T14:36:48.302Z,17.23
2023-02-07T14:39:19.824Z,17.72
2023-02-07T14:41:52.758Z,17.14
2023-02-07T14:44:25.386Z,17.67
2023-02-07T14:47:00.631Z,17.00
2023-02-07T14:49:35.677Z,17.07
2023-02-07T14:52:14.744Z,17.34
2023-02-07T14:54:57.871Z,17.55
2023-02-07T14:57:48.593Z,18.17
2023-02-07T15:00:53.397Z,18.40
2023-02-07T15:03:30.483Z,18.14
2023-02-07T15:06:04.881Z,18.48
2023-02-07T15:08:36.585Z,17.83
2023-02-07T15:11:12.915Z,18.13
2023-02-07T15:13:49.504Z,18.33
2023-02-07T15:16:25.872Z,18.75
2023-02-07T15:19:19.500Z,19.41
2023-02-07T15:21:51.402Z,19.88
2023-02-07T15:24:28.199Z,19.57
2023-02-07T15:27:04.017Z,19.99
2023-02-07T15:29:37.780Z,19.10
2023-02-07T15:32:32.796Z,18.85
2023-02-07T15:35:24.083Z,18.05
2023-02-07T15:38:14.981Z,18.61
2023-02-07T15:40:46.825Z,19.00
2023-02-07T15:43:26.449Z,19.18
2023-02-07T15:46:04.379Z,19.39
2023-02-07T15:48:50.996Z,19.45
2023-02-07T15:51:30.595Z,20.01
2023-02-07T15:54:02.484Z,19.71
2023-02-07T15:56:34.389Z,19.71
2023-02-07T15:59:11.114Z,19.47
2023-02-07T16:01:42.833Z,18.78
2023-02-07T16:04:14.460Z,19.87
2023-02-07T16:07:00.427Z,19.64
2023-02-07T16:09:44.522Z,19.65
2023-02-07T16:12:33.015Z,20.13
2023-02-07T16:15:23.672Z,20.33
2023-02-07T16:17:55.872Z,20.02
2023-02-07T16:20:30.037Z,20.19
2023-02-07T16:23:06.486Z,20.33
2023-02-07T16:25:38.177Z,20.41
2023-02-07T16:28:15.474Z,20.89
2023-02-07T16:30:47.172Z,21.19
2023-02-07T16:33:18.744Z,21.11
2023-02-07T16:35:50.443Z,21.28
2023-02-07T16:38:22.032Z,21.13
2023-02-07T16:40:53.680Z,21.04
2023-02-07T16:43:39.703Z,21.56
2023-02-07T16:46:11.279Z,20.93
2023-02-07T16:48:42.889Z,21.28
2023-02-07T16:51:16.650Z,20.86
2023-02-07T16:53:48.614Z,21.33
2023-02-07T16:56:27.291Z,21.16
2023-02-07T16:58:58.952Z,20.47
2023-02-07T17:01:31.170Z,21.06
2023-02-07T17:04:02.788Z,21.70
2023-02-07T17:06:34.555Z,21.90
2023-02-07T17:09:17.188Z,21.49
2023-02-07T17:11:48.939Z,21.77
2023-02-07T17:14:21.266Z,22.05
2023-02-07T17:16:53.006Z,21.89
2023-02-07T17:19:24.648Z,21.94
2023-02-07T17:21:56.272Z,22.23
2023-02-07T17:24:27.889Z,22.66
2023-02-07T17:27:00.239Z,22.05
2023-02-07T17:29:31.909Z,22.26
2023-02-07T17:32:03.730Z,22.81
2023-02-07T17:34:35.373Z,22.46
2023-02-07T17:37:10.074Z,22.30
2023-02-07T17:39:43.162Z,22.67
2023-02-07T17:42:14.822Z,22.78
2023-02-07T17:44:46.452Z,22.04
2023-02-07T17:47:18.051Z,22.64
2023-02-07T17:49:49.611Z,21.89
2023-02-07T17:52:21.303Z,22.81
2023-02-07T17:54:52.924Z,22.34
2023-02-07T17:57:24.544Z,22.16
2023-02-07T17:59:56.159Z,23.26
2023-02-07T18:02:27.805Z,22.34
2023-02-07T18:04:59.415Z,22.08
2023-02-07T18:07:31.286Z,22.55
2023-02-07T18:10:03.965Z,21.98
2023-02-07T18:12:36.842Z,22.07
2023-02-07T18:15:09.653Z,22.53
2023-02-07T18:17:42.105Z,22.44
2023-02-07T18:20:20.538Z,22.18
2023-02-07T18:22:54.306Z,22.12
2023-02-07T18:25:28.593Z,22.22
2023-02-07T18:28:00.337Z,22.46
2023-02-07T18:30:32.091Z,22.32
2023-02-07T18:33:03.793Z,21.78
2023-02-07T18:35:36.541Z,22.79
2023-02-07T18:38:08.170Z,22.12
2023-02-07T18:40:40.643Z,23.06
2023-02-07T18:43:12.565Z,22.73
2023-02-07T18:45:44.211Z,22.29
2023-02-07T18:48:15.871Z,22.61
2023-02-07T18:50:47.433Z,22.69
2023-02-07T18:53:21.234Z,22.71
2023-02-07T18:55:52.968Z,21.79
2023-02-07T18:58:24.536Z,22.43
2023-02-07T19:01:02.135Z,22.33
2023-02-07T19:03:34.278Z,22.54
2023-02-07T19:06:08.012Z,21.32
2023-02-07T19:08:40.848Z,21.73
2023-02-07T19:11:12.685Z,21.88
2023-02-07T19:13:44.382Z,21.74
2023-02-07T19:16:19.864Z,22.38
2023-02-07T19:18:51.535Z,21.10
2023-02-07T19:21:25.024Z,20.89
2023-02-07T19:23:57.713Z,20.63
2023-02-07T19:26:29.427Z,21.44
2023-02-07T19:29:02.087Z,20.02
2023-02-07T19:31:34.134Z,20.20
2023-02-07T19:34:05.759Z,21.22
2023-02-07T19:36:37.754Z,20.80
2023-02-07T19:39:10.259Z,21.01
2023-02-07T19:41:41.948Z,20.40
2023-02-07T19:44:13.513Z,21.74
2023-02-07T19:46:45.996Z,22.86
2023-02-07T19:49:17.761Z,22.59
2023-02-07T19:51:49.396Z,23.56
2023-02-07T19:54:21.077Z,24.04
2023-02-07T19:56:52.700Z,23.88
2023-02-07T19:59:24.369Z,24.59
2023-02-07T20:01:56.014Z,24.85
2023-02-07T20:04:27.688Z,25.67
2023-02-07T20:06:59.247Z,24.77
2023-02-07T20:09:30.883Z,24.93
2023-02-07T20:12:02.576Z,26.15
2023-02-07T20:14:34.150Z,26.38
2023-02-07T20:17:06.228Z,26.33
2023-02-07T20:19:37.969Z,26.15
2023-02-07T20:22:09.577Z,26.37
2023-02-07T20:24:41.184Z,25.80
2023-02-07T20:27:12.984Z,25.47
2023-02-07T20:29:44.749Z,26.32
2023-02-07T20:32:16.422Z,26.14
2023-02-07T20:34:48.107Z,26.14
2023-02-07T20:37:19.811Z,26.03
2023-02-07T20:39:51.418Z,26.81
2023-02-07T20:42:23.188Z,26.44
2023-02-07T20:44:54.877Z,27.11
2023-02-07T20:47:26.576Z,26.54
2023-02-07T20:49:58.229Z,25.65
2023-02-07T20:52:29.945Z,26.31
2023-02-07T20:55:01.628Z,26.11
2023-02-07T20:57:33.282Z,25.40
2023-02-07T21:00:05.377Z,25.54
2023-02-07T21:02:37.534Z,25.09
2023-02-07T21:05:09.296Z,24.43
2023-02-07T21:07:41.042Z,25.29
2023-02-07T21:10:12.998Z,25.81
2023-02-07T21:12:44.686Z,25.75
2023-02-07T21:15:16.506Z,25.27
2023-02-07T21:17:49.293Z,24.98
2023-02-07T21:20:20.920Z,25.03
2023-02-07T21:22:52.511Z,24.72
2023-02-07T21:25:24.298Z,25.47
2023-02-07T21:27:55.927Z,25.71
2023-02-07T21:30:27.711Z,26.46
2023-02-07T21:32:59.427Z,25.66
2023-02-07T21:35:31.927Z,24.98
2023-02-07T21:38:03.598Z,24.91
2023-02-07T21:40:35.228Z,26.12
2023-02-07T21:43:06.984Z,25.78
2023-02-07T21:45:38.584Z,25.89
2023-02-07T21:48:10.209Z,25.71
2023-02-07T21:50:42.157Z,26.03
2023-02-07T21:53:13.859Z,25.93
2023-02-07T21:55:45.577Z,26.54
2023-02-07T21:58:17.181Z,25.74
2023-02-07T22:00:48.889Z,25.87
2023-02-07T22:03:20.869Z,26.56
2023-02-07T22:05:52.764Z,26.27
2023-02-07T22:08:24.486Z,26.06
2023-02-07T22:10:56.298Z,26.31
2023-02-07T22:13:27.988Z,26.57
2023-02-07T22:16:00.141Z,25.72
2023-02-07T22:18:31.783Z,25.15
2023-02-07T22:21:10.767Z,25.63
2023-02-07T22:23:42.779Z,25.12
2023-02-07T22:26:14.716Z,24.45
2023-02-07T22:28:46.772Z,24.01
2023-02-07T22:31:22.081Z,24.13
2023-02-07T22:33:57.956Z,23.67
2023-02-07T22:36:32.409Z,23.62
2023-02-07T22:39:06.689Z,24.15
2023-02-07T22:41:38.370Z,24.00
2023-02-07T22:44:10.425Z,24.06
2023-02-07T22:46:42.025Z,23.81
2023-02-07T22:49:13.632Z,24.16
2023-02-07T22:51:45.495Z,24.64
2023-02-07T22:54:18.542Z,23.83
2023-02-07T22:56:50.122Z,24.33
2023-02-07T22:59:21.751Z,24.75
2023-02-07T23:01:53.355Z,24.74
2023-02-07T23:04:25.190Z,25.21
2023-02-07T23:06:57.268Z,24.95
2023-02-07T23:09:28.842Z,25.23
2023-02-07T23:12:00.380Z,24.75
2023-02-07T23:14:32.006Z,25.00
2023-02-07T23:17:03.587Z,25.83
2023-02-07T23:19:35.489Z,26.03
2023-02-07T23:22:07.176Z,26.28
2023-02-07T23:24:38.928Z,27.43
2023-02-07T23:27:11.311Z,27.06
2023-02-07T23:29:42.946Z,28.06
2023-02-07T23:32:14.682Z,28.86
2023-02-07T23:34:46.852Z,29.55
2023-02-07T23:37:18.487Z,30.09
2023-02-07T23:39:50.083Z,31.22
2023-02-07T23:42:22.056Z,31.80
2023-02-07T23:44:53.735Z,31.47
2023-02-07T23:47:25.354Z,30.58
2023-02-07T23:49:56.924Z,30.03
2023-02-07T23:52:28.474Z,30.21
2023-02-07T23:55:00.093Z,30.65
2023-02-07T23:57:31.677Z,30.81
